Chihuahua University, Mexico

2:43 AM MDT on October 01, 2014 (GMT -0600)
Gen Div P A Roberto Fierro | Change Station
CLOSE
Current Station
Airport
Location: Chihuahua,
Elevation: 4462 ft
Nearby Weather Stations

Elev 4462 ft 28.70 °N, 105.96 °W | Updated 4 hours ago

Clear
Clear
63 °F
Feels Like 63 °F
N
7
Wind Variable Wind from SSE

Today
High -- | Low -- °F
--% Chance of Precip.
Yesterday
High -- | Low -- °F
Precip. -- in
6:56 AM 6:49 PM
Waxing Crescent, 45% visible
Pressure 29.99 in
Visibility 10.0 miles
Clouds Clear
Dew Point 57 °F
Humidity 82%
Rainfall 0.00 in
Snow Depth Not available.
UV 0 out of 12
Pollen Not available.
Air Quality Not available.
Flu Activity Not available.
METAR MMCU 010440Z 15006KT 10SM SKC 17/14 A2999

More Conditions Fewer Conditions

Pressure 29.99 in
Visibility 10.0 miles
Clouds Clear
Dew Point 57 °F
Humidity 82%
Rainfall 0.00 in
Snow Depth Not available.
UV 0 out of 12
Pollen Not available.
Air Quality Not available.
Flu Activity Not available.
METAR MMCU 010440Z 15006KT 10SM SKC 17/14 A2999

More Conditions Fewer Conditions

10-Day Weather Forecast

Almanac

Astronomy

Oct. 01, 2014 Rise Set
Actual Time 6:56 AM MDT 6:49 PM MDT
Civil Twilight 6:33 AM MDT 7:13 PM MDT
Nautical Twilight 6:05 AM MDT 7:40 PM MDT
Astronomical Twilight 5:38 AM MDT 8:07 PM MDT
Moon 1:40 PM MDT No Moon Set
Length of Visible Light 12h 39m
Length of Day
11h 52m
Tomorrow will be 1m 41s shorter.
Waxing Crescent, 45% of the Moon is Illuminated
Today
Waxing Crescent
Oct 1
First Quarter
Oct 8
Full
Oct 15
Last Quarter
Oct 23
New

Yesterday's Extremes

Country Highs Country Lows

Community

WunderPhotos

Upload Photos

1,757,902 photos uploaded!

Nearby

Snow Depth

Not available.

Earthquake Activity

City Distance Mag. Time & Date
No recent earthquake activity has been reported nearby.
Minimum magnitude displayed is 2.5.

Coastal Water Temperatures

Place Temperature
No Stations Reporting

Nearby Weather Stations